Time;durP1;ratioP1;P1;durP2;ratioP2;P2;SDS_P1;SDS_P2;PMS_P1;PMS_P2;Temp;Humidity;BMP_temperature;BMP_pressure;BME280_temperature;BME280_humidity;BME280_pressure;Samples;Min_cycle;Max_cycle;Signal;HPM_P1;HPM_P2
2024/03/19 00:02:03;;;;;;;;;;;11.00;99.90;;;11.31;73.05;100564.25;5101619;28;19935;-82
2024/03/19 00:04:30;;;;;;;;;;;11.00;99.90;;;11.32;73.17;100565.06;5084763;28;19987;-82
2024/03/19 00:06:58;;;;;;;;;;;11.00;99.90;;;11.32;73.23;100571.25;5064038;28;20398;-82
2024/03/19 00:09:25;;;;;;;;;;;11.00;99.90;;;11.29;73.13;100574.34;5091067;28;19930;-82
2024/03/19 00:11:54;;;;;;;;;;;11.00;99.90;;;11.30;73.13;100570.63;5111353;28;19932;-82
2024/03/19 00:14:21;;;;;;;;;;;11.00;99.90;;;11.31;73.37;100566.94;5046890;28;19928;-82
2024/03/19 00:16:49;;;;;;;;;;;11.00;99.90;;;11.33;73.47;100578.22;5080392;28;19924;-81
2024/03/19 00:19:17;;;;;;;;;;;11.00;99.90;;;11.34;73.37;100573.72;5080093;28;19925;-82
2024/03/19 00:21:44;;;;;;;;;;;11.00;99.90;;;11.35;73.30;100576.16;5102292;28;20403;-82
2024/03/19 00:24:11;;;;;;;;;;;11.00;99.90;;;11.33;73.46;100564.88;5113104;28;19924;-82
2024/03/19 00:26:38;;;;;;;;;;;11.00;99.90;;;11.32;73.56;100567.75;5083242;28;20373;-82
2024/03/19 00:29:08;;;;;;;;;;;11.00;99.90;;;11.34;73.62;100568.38;5107328;28;20322;-82
2024/03/19 00:31:35;;;;;;;;;;;11.00;99.90;;;11.34;73.83;100571.03;5095978;28;20268;-81
2024/03/19 00:34:02;;;;;;;;;;;11.00;99.90;;;11.32;73.80;100567.75;5098713;28;19928;-82
2024/03/19 00:36:29;;;;;;;;;;;11.00;99.90;;;11.30;73.86;100573.31;5098000;28;19925;-81
2024/03/19 00:38:56;;;;;;;;;;;11.00;99.90;;;11.33;74.12;100566.72;5092856;28;20410;-82
2024/03/19 00:41:24;;;;;;;;;;;11.00;99.90;;;11.34;73.91;100571.03;5099199;28;19954;-81
2024/03/19 00:43:51;;;;;;;;;;;11.00;99.90;;;11.35;73.84;100565.47;5102009;28;20014;-82
2024/03/19 00:46:20;;;;;;;;;;;11.00;99.90;;;11.36;73.97;100574.28;5099819;28;19939;-82
2024/03/19 00:48:47;;;;;;;;;;;11.00;99.90;;;11.38;73.87;100568.75;5079996;28;19924;-82
2024/03/19 00:51:14;;;;;;;;;;;11.00;99.90;;;11.37;73.80;100569.78;5115369;28;20022;-82
2024/03/19 00:53:41;;;;;;;;;;;11.00;99.90;;;11.37;73.88;100572.44;5104449;28;20383;-82
2024/03/19 00:56:08;;;;;;;;;;;11.00;99.90;;;11.37;73.93;100573.28;5118549;28;19949;-82
2024/03/19 00:58:36;;;;;;;;;;;11.00;99.90;;;11.37;74.08;100567.94;5095636;28;19945;-81
2024/03/19 01:01:04;;;;;;;;;;;11.00;99.90;;;11.35;73.84;100565.47;5118556;28;19932;-82
2024/03/19 01:03:33;;;;;;;;;;;11.00;99.90;;;11.36;74.05;100568.97;5109933;28;19923;-82
2024/03/19 01:06:01;;;;;;;;;;;11.00;99.90;;;11.37;73.98;100557.28;5117155;28;20018;-82
2024/03/19 01:08:28;;;;;;;;;;;11.10;99.90;;;11.42;74.00;100559.25;5117133;28;19963;-82
2024/03/19 01:11:00;;;;;;;;;;;11.10;99.90;;;11.40;73.71;100556.81;5100332;28;19924;-82
2024/03/19 01:13:28;;;;;;;;;;;11.10;99.90;;;11.40;73.85;100553.34;5084625;28;19924;-81
2024/03/19 01:15:56;;;;;;;;;;;11.10;99.90;;;11.39;73.65;100551.69;5100479;28;19931;-82
2024/03/19 01:18:24;;;;;;;;;;;11.10;99.90;;;11.36;73.60;100550.25;5116958;28;19966;-82
2024/03/19 01:20:53;;;;;;;;;;;11.00;99.90;;;11.33;73.58;100548.03;5102065;28;20295;-81
2024/03/19 01:23:21;;;;;;;;;;;11.00;99.90;;;11.33;73.66;100551.53;5116816;28;19974;-82
2024/03/19 01:25:48;;;;;;;;;;;11.00;99.90;;;11.32;73.41;100541.03;5048580;28;19924;-82
2024/03/19 01:28:16;;;;;;;;;;;11.00;99.90;;;11.32;73.41;100538.38;5081025;28;19969;-82
2024/03/19 01:30:43;;;;;;;;;;;11.00;99.90;;;11.31;73.52;100548.25;5099369;28;19985;-82
2024/03/19 01:33:11;;;;;;;;;;;11.00;99.90;;;11.31;73.45;100544.75;5098302;28;20404;-82
2024/03/19 01:35:39;;;;;;;;;;;11.00;99.90;;;11.29;73.49;100544.16;5087761;28;19924;-82
2024/03/19 01:38:07;;;;;;;;;;;11.00;99.90;;;11.26;73.51;100541.91;5120814;28;20002;-82
2024/03/19 01:40:34;;;;;;;;;;;10.90;99.90;;;11.26;73.40;100541.91;5121490;28;20014;-82
2024/03/19 01:43:02;;;;;;;;;;;10.90;99.90;;;11.23;73.53;100540.50;5120943;28;19939;-81
2024/03/19 01:45:29;;;;;;;;;;;10.90;99.90;;;11.23;73.76;100529.81;5102114;28;19935;-82
2024/03/19 01:47:56;;;;;;;;;;;10.90;99.90;;;11.24;73.94;100533.31;5101702;28;20412;-81
2024/03/19 01:50:24;;;;;;;;;;;10.90;99.90;;;11.24;73.90;100523.44;5097719;28;20350;-82
2024/03/19 01:52:52;;;;;;;;;;;10.90;99.90;;;11.24;73.80;100525.28;5088550;28;20390;-82
2024/03/19 01:55:22;;;;;;;;;;;10.90;99.90;;;11.23;73.41;100521.81;5117601;28;19975;-81
2024/03/19 01:57:51;;;;;;;;;;;10.90;99.90;;;11.23;73.87;100521.00;5076181;28;19927;-82
2024/03/19 02:00:18;;;;;;;;;;;10.90;99.90;;;11.24;73.79;100517.28;5082814;28;20019;-81
2024/03/19 02:02:45;;;;;;;;;;;10.90;99.90;;;11.22;73.68;100522.00;5066366;28;19948;-82
2024/03/19 02:05:13;;;;;;;;;;;10.90;99.90;;;11.20;73.91;100516.88;5101551;28;20019;-82
2024/03/19 02:07:40;;;;;;;;;;;10.90;99.90;;;11.19;73.87;100523.25;5106121;28;19924;-81
2024/03/19 02:10:09;;;;;;;;;;;10.90;99.90;;;11.19;73.88;100512.59;5066317;28;19924;-81
2024/03/19 02:12:38;;;;;;;;;;;10.90;99.90;;;11.16;74.01;100510.34;5083152;28;19928;-81
2024/03/19 02:15:06;;;;;;;;;;;10.90;99.90;;;11.16;74.07;100509.53;5070119;28;19923;-82
2024/03/19 02:17:33;;;;;;;;;;;10.80;99.90;;;11.15;74.17;100507.88;5116804;28;19931;-82
2024/03/19 02:20:00;;;;;;;;;;;10.80;99.90;;;11.12;73.98;100510.97;5068111;28;19938;-82
2024/03/19 02:22:29;;;;;;;;;;;10.80;99.90;;;11.07;73.85;100507.09;5097551;28;19924;-81
2024/03/19 02:24:56;;;;;;;;;;;10.80;99.90;;;11.04;73.84;100494.19;5081400;28;19951;-81
2024/03/19 02:27:23;;;;;;;;;;;10.80;99.90;;;11.05;73.79;100500.34;5092643;28;19934;-82
2024/03/19 02:29:50;;;;;;;;;;;10.70;99.90;;;11.03;73.53;100500.56;5086819;28;20349;-81
2024/03/19 02:32:19;;;;;;;;;;;10.70;99.90;;;11.01;73.21;100499.13;5099959;28;19931;-81
2024/03/19 02:34:47;;;;;;;;;;;10.70;99.90;;;10.99;73.43;100495.88;5100434;28;19924;-81
2024/03/19 02:37:14;;;;;;;;;;;10.60;99.90;;;10.99;73.36;100493.19;5071156;28;19927;-82
2024/03/19 02:39:44;;;;;;;;;;;10.60;99.90;;;10.98;73.31;100489.72;5091269;28;20303;-82
2024/03/19 02:42:12;;;;;;;;;;;10.60;99.90;;;10.96;73.22;100490.94;5082423;28;19975;-82
2024/03/19 02:44:39;;;;;;;;;;;10.60;99.90;;;10.93;73.05;100492.19;5109400;28;19924;-82
2024/03/19 02:47:06;;;;;;;;;;;10.60;99.90;;;10.93;73.09;100488.69;5120705;28;19923;-81
2024/03/19 02:49:34;;;;;;;;;;;10.50;99.90;;;10.93;73.06;100488.69;5113334;28;19972;-81
2024/03/19 02:52:01;;;;;;;;;;;10.50;99.90;;;10.91;72.86;100493.44;5082418;28;19928;-81
2024/03/19 02:54:28;;;;;;;;;;;10.50;99.90;;;10.87;72.91;100497.56;5117752;28;20366;-81
2024/03/19 02:56:56;;;;;;;;;;;10.50;99.90;;;10.86;73.30;100496.75;5087699;28;19972;-82
2024/03/19 02:59:24;;;;;;;;;;;10.50;99.90;;;10.86;73.29;100494.06;5100609;28;20022;-81
2024/03/19 03:01:51;;;;;;;;;;;10.50;99.90;;;10.89;73.59;100487.50;5106684;28;19988;-81
2024/03/19 03:04:18;;;;;;;;;;;10.50;99.90;;;10.89;73.65;100495.50;5104347;28;20394;-81
2024/03/19 03:06:45;;;;;;;;;;;10.50;99.90;;;10.87;73.75;100493.03;5113942;28;20340;-82
2024/03/19 03:09:12;;;;;;;;;;;10.50;99.90;;;10.87;73.93;100494.88;5102621;28;19949;-82
2024/03/19 03:11:40;;;;;;;;;;;10.50;99.90;;;10.85;73.99;100500.44;5120029;28;19950;-82
2024/03/19 03:14:08;;;;;;;;;;;10.50;99.90;;;10.85;74.05;100504.97;5108229;28;19931;-81
2024/03/19 03:16:36;;;;;;;;;;;10.40;99.90;;;10.85;74.01;100496.97;5105600;28;19939;-81
2024/03/19 03:19:03;;;;;;;;;;;10.50;99.90;;;10.86;73.96;100495.91;5112327;28;19924;-82
2024/03/19 03:21:30;;;;;;;;;;;10.50;99.90;;;10.89;74.03;100499.00;5090547;28;19935;-82
2024/03/19 03:23:58;;;;;;;;;;;10.50;99.90;;;10.93;74.03;100494.03;5104256;28;19924;-82
2024/03/19 03:26:25;;;;;;;;;;;10.50;99.90;;;10.98;74.15;100505.72;5118256;28;19927;-82
2024/03/19 03:28:52;;;;;;;;;;;10.60;99.90;;;11.01;74.14;100507.94;5118351;28;19931;-81
2024/03/19 03:31:21;;;;;;;;;;;10.60;99.90;;;11.04;74.12;100509.38;5105614;28;19924;-81
2024/03/19 03:33:48;;;;;;;;;;;10.70;99.90;;;11.05;74.43;100505.69;5097594;28;19928;-82
2024/03/19 03:36:15;;;;;;;;;;;10.70;99.90;;;11.05;74.42;100503.00;5106189;28;20476;-82
2024/03/19 03:38:42;;;;;;;;;;;10.70;99.90;;;11.07;74.34;100515.09;5082097;28;19945;-81
2024/03/19 03:41:09;;;;;;;;;;;10.70;99.90;;;11.04;74.33;100515.53;5107670;28;19969;-82
2024/03/19 03:43:36;;;;;;;;;;;10.70;99.90;;;11.02;74.26;100519.44;5107901;28;20371;-82
2024/03/19 03:46:04;;;;;;;;;;;10.70;99.90;;;11.00;74.34;100514.31;5097068;28;19925;-81
2024/03/19 03:48:33;;;;;;;;;;;10.60;99.90;;;10.97;74.45;100519.25;5084051;28;19924;-82
2024/03/19 03:51:00;;;;;;;;;;;10.60;99.90;;;10.93;74.43;100518.88;5099540;28;20046;-81
2024/03/19 03:53:27;;;;;;;;;;;10.60;99.90;;;10.94;74.80;100520.53;5103292;28;19977;-82
2024/03/19 03:55:54;;;;;;;;;;;10.60;99.90;;;10.96;74.56;100525.63;5097359;28;19928;-81
2024/03/19 03:58:21;;;;;;;;;;;10.70;99.90;;;11.00;74.55;100529.53;5104635;28;20443;-82
2024/03/19 04:00:49;;;;;;;;;;;10.60;99.90;;;11.03;74.61;100534.44;5151496;27;19977;-82
2024/03/19 04:03:16;;;;;;;;;;;10.70;99.90;;;11.05;74.34;100532.38;5113786;28;20330;-81
2024/03/19 04:05:48;;;;;;;;;;;10.70;99.90;;;11.03;74.35;100537.13;5106080;28;19924;-82
2024/03/19 04:08:15;;;;;;;;;;;10.70;99.90;;;11.04;74.16;100539.56;5100083;28;19928;-82
2024/03/19 04:10:43;;;;;;;;;;;10.70;99.90;;;11.04;74.18;100539.56;5114255;28;19931;-81
2024/03/19 04:13:10;;;;;;;;;;;10.70;99.90;;;11.04;74.00;100528.88;5117801;28;19924;-81
2024/03/19 04:15:37;;;;;;;;;;;10.70;99.90;;;11.02;73.73;100546.13;5099489;28;19969;-82
2024/03/19 04:18:05;;;;;;;;;;;10.80;99.90;;;10.94;73.63;100552.53;5118651;28;19963;-82
2024/03/19 04:20:32;;;;;;;;;;;10.70;99.90;;;10.96;73.73;100555.81;5105626;28;20337;-82
2024/03/19 04:23:01;;;;;;;;;;;10.70;99.90;;;11.00;74.10;100554.34;5118713;28;20344;-82
2024/03/19 04:25:29;;;;;;;;;;;10.70;99.90;;;11.00;73.91;100553.53;5111084;28;19930;-81
2024/03/19 04:27:56;;;;;;;;;;;10.70;99.90;;;11.01;73.73;100549.84;5099064;28;19932;-81
2024/03/19 04:30:24;;;;;;;;;;;10.80;99.90;;;10.97;73.35;100552.09;5104904;28;20019;-82
2024/03/19 04:32:52;;;;;;;;;;;10.80;99.90;;;11.00;73.74;100545.53;5117695;28;20438;-82
2024/03/19 04:35:19;;;;;;;;;;;10.70;99.90;;;11.00;73.49;100562.34;5116563;28;20014;-81
2024/03/19 04:37:46;;;;;;;;;;;10.80;99.90;;;10.99;73.50;100555.41;5117123;28;19927;-81
2024/03/19 04:40:18;;;;;;;;;;;10.80;99.90;;;11.02;73.78;100556.81;5115665;28;20344;-82
2024/03/19 04:42:45;;;;;;;;;;;10.70;99.90;;;11.04;73.86;100552.09;5110630;28;20480;-82
2024/03/19 04:45:12;;;;;;;;;;;10.70;99.90;;;10.98;73.26;100556.44;5101932;28;19923;-82
2024/03/19 04:47:39;;;;;;;;;;;10.80;99.90;;;10.97;73.68;100565.44;5119296;28;19945;-82
2024/03/19 04:50:07;;;;;;;;;;;10.70;99.90;;;10.99;73.35;100560.72;5114486;28;19939;-81
2024/03/19 04:52:35;;;;;;;;;;;10.80;99.90;;;10.97;73.43;100562.78;5113331;28;19932;-82
2024/03/19 04:55:02;;;;;;;;;;;10.70;99.90;;;10.97;73.70;100568.09;5100355;28;19924;-82
2024/03/19 04:57:31;;;;;;;;;;;10.70;99.90;;;11.00;73.36;100569.56;5069175;28;19987;-82
2024/03/19 04:59:58;;;;;;;;;;;10.80;99.90;;;10.96;73.62;100571.00;5115362;28;19928;-82
2024/03/19 05:02:26;;;;;;;;;;;10.70;99.90;;;10.99;73.68;100565.25;5119057;28;19932;-82
2024/03/19 05:04:53;;;;;;;;;;;10.70;99.90;;;10.99;73.82;100573.25;5117235;28;20409;-82
2024/03/19 05:07:21;;;;;;;;;;;10.70;99.90;;;11.00;73.90;100569.56;5109977;28;19924;-83
2024/03/19 05:09:48;;;;;;;;;;;10.70;99.90;;;11.01;73.90;100577.34;5105115;28;19969;-83
2024/03/19 05:12:15;;;;;;;;;;;10.70;99.90;;;11.02;73.97;100570.16;5101085;28;19928;-81
2024/03/19 05:14:44;;;;;;;;;;;10.70;99.90;;;11.02;73.89;100570.16;5122283;28;19928;-81
2024/03/19 05:17:11;;;;;;;;;;;10.70;99.90;;;11.01;73.65;100568.50;5113727;28;19978;-81
2024/03/19 05:19:38;;;;;;;;;;;10.70;99.90;;;10.99;73.32;100574.06;5118322;28;19977;-81
2024/03/19 05:22:06;;;;;;;;;;;10.70;99.90;;;10.97;73.01;100576.13;5120547;28;20310;-80
2024/03/19 05:24:33;;;;;;;;;;;10.70;99.90;;;10.96;73.13;100571.81;5117742;28;19945;-80
2024/03/19 05:27:00;;;;;;;;;;;10.70;99.90;;;10.96;73.13;100581.66;5110056;28;19977;-80
2024/03/19 05:29:27;;;;;;;;;;;10.60;99.90;;;10.97;73.10;100593.97;5110431;28;19924;-80
2024/03/19 05:31:56;;;;;;;;;;;10.60;99.90;;;10.96;73.32;100593.16;5048027;28;19967;-82
2024/03/19 05:34:23;;;;;;;;;;;10.60;99.90;;;10.94;73.24;100589.09;5103794;28;20349;-81
2024/03/19 05:36:51;;;;;;;;;;;10.60;99.90;;;10.89;73.42;100592.38;5100407;28;19924;-81
2024/03/19 05:39:19;;;;;;;;;;;10.60;99.90;;;10.91;73.42;100595.66;5119310;28;19962;-81
2024/03/19 05:41:46;;;;;;;;;;;10.60;99.90;;;10.94;73.46;100597.09;5102628;28;19924;-81
2024/03/19 05:44:13;;;;;;;;;;;10.60;99.90;;;10.96;73.56;100600.34;5075990;28;20301;-81
2024/03/19 05:46:41;;;;;;;;;;;10.60;99.90;;;10.96;73.39;100595.00;5079248;28;19955;-81
2024/03/19 05:49:11;;;;;;;;;;;10.60;99.90;;;10.93;73.36;100596.28;5098344;28;19923;-81
2024/03/19 05:51:38;;;;;;;;;;;10.60;99.90;;;10.92;73.11;100599.13;5094236;28;19928;-81
2024/03/19 05:54:05;;;;;;;;;;;10.60;99.90;;;10.88;73.29;100595.25;5101919;28;19987;-81
2024/03/19 05:56:33;;;;;;;;;;;10.60;99.90;;;10.88;73.28;100600.56;5086382;28;19973;-81
2024/03/19 05:59:00;;;;;;;;;;;10.60;99.90;;;10.87;73.48;100601.59;5047321;28;19924;-81
2024/03/19 06:01:28;;;;;;;;;;;10.60;99.90;;;10.87;73.61;100606.94;5094158;28;19931;-81
2024/03/19 06:03:55;;;;;;;;;;;10.60;99.90;;;10.90;73.51;100610.03;5083066;28;19930;-81
2024/03/19 06:06:24;;;;;;;;;;;10.60;99.90;;;10.88;73.54;100606.72;5112388;28;19966;-81
2024/03/19 06:08:51;;;;;;;;;;;10.60;99.90;;;10.88;73.76;100614.72;5108465;28;19924;-81
2024/03/19 06:11:18;;;;;;;;;;;10.60;99.90;;;10.90;73.69;100610.03;5083027;28;19923;-81
2024/03/19 06:13:45;;;;;;;;;;;10.60;99.90;;;10.91;73.86;100608.97;5107828;28;19957;-81
2024/03/19 06:16:13;;;;;;;;;;;10.60;99.90;;;10.94;73.91;100621.09;5100494;28;19928;-81
2024/03/19 06:18:40;;;;;;;;;;;10.60;99.90;;;10.93;73.68;100620.28;5099268;28;19928;-81
2024/03/19 06:21:07;;;;;;;;;;;10.60;99.90;;;10.95;73.73;100620.06;5086396;28;20485;-81
2024/03/19 06:23:36;;;;;;;;;;;10.60;99.90;;;10.92;73.75;100629.28;5100634;28;19946;-81
2024/03/19 06:26:03;;;;;;;;;;;10.60;99.90;;;10.94;74.08;100629.94;5100329;28;20357;-83
2024/03/19 06:28:30;;;;;;;;;;;10.70;99.90;;;10.97;74.15;100637.50;5086160;28;19923;-83
2024/03/19 06:30:58;;;;;;;;;;;10.70;99.90;;;10.98;73.94;100640.97;5112974;27;19928;-83
2024/03/19 06:33:25;;;;;;;;;;;10.70;99.90;;;10.99;73.91;100639.97;5096278;28;19924;-84
2024/03/19 06:35:53;;;;;;;;;;;10.70;99.90;;;10.99;74.05;100639.97;5099039;28;19950;-84
2024/03/19 06:38:21;;;;;;;;;;;10.70;99.90;;;10.95;74.04;100641.41;5101497;28;19995;-84
2024/03/19 06:40:50;;;;;;;;;;;10.70;99.90;;;10.97;74.34;100636.69;5115686;28;19930;-83
2024/03/19 06:43:19;;;;;;;;;;;10.70;99.90;;;11.00;74.28;100646.94;5106244;28;20341;-84
2024/03/19 06:45:47;;;;;;;;;;;10.80;99.90;;;10.99;73.94;100648.78;5076003;28;20018;-84
2024/03/19 06:48:14;;;;;;;;;;;10.80;99.90;;;11.03;74.16;100654.53;5085226;28;19924;-83
2024/03/19 06:50:42;;;;;;;;;;;10.80;99.90;;;11.01;74.36;100643.25;5117124;28;19924;-82
2024/03/19 06:53:09;;;;;;;;;;;10.80;99.90;;;11.03;74.53;100647.34;5106833;28;19959;-81
2024/03/19 06:55:37;;;;;;;;;;;10.80;99.90;;;11.04;74.53;100654.31;5114475;28;19931;-84
2024/03/19 06:58:06;;;;;;;;;;;10.80;99.90;;;11.06;74.46;100656.78;5093582;28;19924;-81
2024/03/19 07:00:34;;;;;;;;;;;10.80;99.90;;;11.09;74.64;100661.69;5098988;28;19928;-81
2024/03/19 07:03:01;;;;;;;;;;;10.90;99.90;;;11.04;74.12;100669.53;5108288;28;19936;-81
2024/03/19 07:05:29;;;;;;;;;;;10.80;99.90;;;11.07;74.32;100669.09;5071116;28;20358;-81
2024/03/19 07:07:58;;;;;;;;;;;10.90;99.90;;;11.11;74.88;100669.50;5099335;28;20357;-81
2024/03/19 07:10:26;;;;;;;;;;;11.00;99.90;;;11.12;74.62;100669.28;5096646;28;20393;-82
2024/03/19 07:12:56;;;;;;;;;;;11.00;99.90;;;11.13;74.66;100670.94;5098582;28;19928;-80
2024/03/19 07:15:26;;;;;;;;;;;11.00;99.90;;;11.20;74.77;100674.38;5094069;28;19928;-80
2024/03/19 07:17:54;;;;;;;;;;;11.00;99.90;;;11.25;74.65;100677.25;5097385;28;20020;-80
2024/03/19 07:20:21;;;;;;;;;;;11.10;99.90;;;11.27;74.80;100685.03;5096501;28;19994;-82
2024/03/19 07:22:49;;;;;;;;;;;11.10;99.90;;;11.25;75.18;100671.91;5113235;28;19949;-81
2024/03/19 07:25:17;;;;;;;;;;;11.10;99.90;;;11.28;75.12;100682.19;5114720;28;19935;-82
2024/03/19 07:27:44;;;;;;;;;;;11.10;99.90;;;11.33;74.95;100681.56;5149414;27;19923;-81
2024/03/19 07:30:14;;;;;;;;;;;11.20;99.90;;;11.38;74.88;100686.25;5114777;28;19931;-81
2024/03/19 07:32:45;;;;;;;;;;;11.20;99.90;;;11.41;75.13;100683.16;5112416;28;19924;-81
2024/03/19 07:35:13;;;;;;;;;;;11.30;99.90;;;11.40;74.76;100687.66;5096890;28;20352;-81
2024/03/19 07:37:41;;;;;;;;;;;11.30;99.90;;;11.44;75.23;100688.91;5115824;28;19923;-81
2024/03/19 07:40:10;;;;;;;;;;;11.40;99.90;;;11.47;75.06;100691.16;5114144;28;20478;-81
2024/03/19 07:42:37;;;;;;;;;;;11.50;99.90;;;11.51;75.19;100692.34;5097110;28;20398;-81
2024/03/19 07:45:07;;;;;;;;;;;11.50;99.90;;;11.53;75.34;100689.47;5095259;28;19932;-80
2024/03/19 07:47:37;;;;;;;;;;;11.60;99.90;;;11.58;74.87;100692.34;5091994;28;20314;-80
2024/03/19 07:50:08;;;;;;;;;;;11.60;99.90;;;11.64;75.43;100688.81;5059539;28;19928;-81
2024/03/19 07:52:35;;;;;;;;;;;11.70;99.90;;;11.67;75.91;100699.09;5094794;28;19932;-81
2024/03/19 07:55:02;;;;;;;;;;;11.80;99.90;;;11.72;75.32;100698.44;5094619;28;19924;-81
2024/03/19 07:57:30;;;;;;;;;;;11.80;99.90;;;11.80;75.61;100693.66;5093562;28;19924;-81
2024/03/19 08:00:05;;;;;;;;;;;11.90;99.90;;;11.82;74.76;100696.97;5093450;28;20019;-81
2024/03/19 08:02:33;;;;;;;;;;;11.90;99.90;;;11.85;75.01;100701.06;5095047;28;19932;-81
2024/03/19 08:05:00;;;;;;;;;;;12.00;99.90;;;11.88;74.55;100697.97;5093162;28;19970;-81
2024/03/19 08:07:28;;;;;;;;;;;12.00;99.90;;;11.91;74.37;100705.56;5093350;28;19971;-81
2024/03/19 08:09:56;;;;;;;;;;;12.00;99.90;;;11.90;74.20;100700.41;5093350;28;19925;-81
2024/03/19 08:12:25;;;;;;;;;;;12.10;99.90;;;11.90;74.63;100697.75;5094076;28;19924;-81
2024/03/19 08:15:00;;;;;;;;;;;12.00;99.90;;;11.92;75.20;100691.16;5076074;28;20379;-81
2024/03/19 08:17:27;;;;;;;;;;;12.10;99.90;;;11.95;75.24;100692.56;5092752;28;19967;-81
2024/03/19 08:19:56;;;;;;;;;;;12.10;99.90;;;11.95;74.62;100689.91;5094044;28;19928;-81
2024/03/19 08:22:24;;;;;;;;;;;12.10;99.90;;;11.99;74.88;100699.13;5095011;28;19924;-83
2024/03/19 08:24:53;;;;;;;;;;;12.10;99.90;;;12.07;75.01;100704.25;5093970;28;19955;-81
2024/03/19 08:27:20;;;;;;;;;;;12.20;99.90;;;12.08;74.96;100697.84;5093463;28;19952;-81
2024/03/19 08:29:48;;;;;;;;;;;12.20;99.90;;;12.13;75.17;100711.41;5094767;28;20010;-81
2024/03/19 08:32:15;;;;;;;;;;;12.30;99.90;;;12.19;75.60;100702.50;5093789;28;20310;-81
2024/03/19 08:34:43;;;;;;;;;;;12.40;99.90;;;12.25;75.37;100695.47;5115677;28;19924;-81
2024/03/19 08:37:11;;;;;;;;;;;12.40;99.90;;;12.27;74.90;100701.44;5114955;28;19958;-81
2024/03/19 08:39:38;;;;;;;;;;;12.50;99.90;;;12.27;73.75;100704.09;5079890;28;20344;-81
2024/03/19 08:42:08;;;;;;;;;;;12.40;99.90;;;12.27;73.76;100696.91;5081270;28;20349;-81
2024/03/19 08:44:35;;;;;;;;;;;12.50;99.90;;;12.30;74.10;100691.13;5076593;28;19924;-81
2024/03/19 08:47:02;;;;;;;;;;;12.50;99.90;;;12.33;74.03;100688.00;5078991;28;19924;-81
2024/03/19 08:49:30;;;;;;;;;;;12.50;99.90;;;12.37;73.87;100683.88;5046303;28;19985;-81
2024/03/19 08:51:57;;;;;;;;;;;12.50;99.90;;;12.40;73.66;100679.13;5080508;28;19973;-80
2024/03/19 08:54:24;;;;;;;;;;;12.50;99.90;;;12.41;73.67;100678.09;5099103;28;19966;-84
2024/03/19 08:56:52;;;;;;;;;;;12.50;99.90;;;12.43;73.59;100684.84;5099396;28;19928;-85
2024/03/19 08:59:21;;;;;;;;;;;12.50;99.90;;;12.48;73.36;100684.19;5099119;28;19928;-85
2024/03/19 09:01:49;;;;;;;;;;;12.60;99.90;;;12.50;73.21;100682.94;5098831;28;19970;-84
2024/03/19 09:04:16;;;;;;;;;;;12.60;99.90;;;12.57;73.46;100685.56;5098445;28;19924;-84
2024/03/19 09:06:46;;;;;;;;;;;12.70;99.90;;;12.61;72.78;100686.75;5046833;28;19924;-84
2024/03/19 09:09:14;;;;;;;;;;;12.70;99.90;;;12.68;73.25;100690.19;5057443;28;19928;-83
2024/03/19 09:11:41;;;;;;;;;;;12.80;99.90;;;12.74;73.03;100692.00;5062360;28;19959;-82
2024/03/19 09:14:09;;;;;;;;;;;12.90;99.90;;;12.77;73.27;100675.50;5098740;28;19969;-80
2024/03/19 09:16:37;;;;;;;;;;;12.90;99.90;;;12.82;73.19;100689.03;5099109;28;20022;-80
2024/03/19 09:19:05;;;;;;;;;;;12.90;99.90;;;12.86;73.02;100687.56;5081824;28;19956;-80
2024/03/19 09:21:32;;;;;;;;;;;13.00;99.90;;;12.88;72.98;100688.16;5063884;28;19946;-80
2024/03/19 09:23:59;;;;;;;;;;;13.10;99.90;;;12.92;72.72;100691.19;5063918;28;19928;-80
2024/03/19 09:26:27;;;;;;;;;;;13.10;99.90;;;12.93;72.18;100686.66;5045614;28;20429;-80
2024/03/19 09:28:54;;;;;;;;;;;13.10;99.90;;;12.95;71.76;100687.28;5096074;28;20032;-80
2024/03/19 09:31:21;;;;;;;;;;;13.10;99.90;;;12.99;72.06;100694.66;5118637;28;19924;-80
2024/03/19 09:33:50;;;;;;;;;;;13.20;99.90;;;13.04;72.07;100685.94;5097190;28;19934;-80
2024/03/19 09:36:19;;;;;;;;;;;13.20;99.90;;;13.07;71.46;100690.84;5085842;28;20081;-80
2024/03/19 09:38:49;;;;;;;;;;;13.30;99.90;;;13.10;71.16;100680.50;5118664;28;20434;-80
2024/03/19 09:41:16;;;;;;;;;;;13.40;99.90;;;13.12;71.01;100680.28;5100705;28;20387;-80
2024/03/19 09:43:48;;;;;;;;;;;13.40;99.90;;;13.17;70.61;100679.63;5119197;28;20398;-80
2024/03/19 09:46:16;;;;;;;;;;;13.40;99.90;;;13.24;70.87;100685.78;5119182;28;20015;-80
2024/03/19 09:48:46;;;;;;;;;;;13.50;99.90;;;13.29;69.86;100677.88;5118992;28;20398;-80
2024/03/19 09:51:19;;;;;;;;;;;13.50;99.90;;;13.34;69.05;100678.84;5100476;28;20386;-80
2024/03/19 09:53:48;;;;;;;;;;;13.60;99.90;;;13.37;68.71;100681.09;5119222;28;19955;-81
2024/03/19 09:56:19;;;;;;;;;;;13.60;99.90;;;13.40;68.32;100671.75;5100042;28;19928;-80
2024/03/19 09:58:51;;;;;;;;;;;13.60;99.90;;;13.44;68.62;100675.63;5098918;28;20378;-80
2024/03/19 10:01:19;;;;;;;;;;;13.70;99.90;;;13.45;67.77;100676.44;5098745;28;20562;-80
2024/03/19 10:03:47;;;;;;;;;;;13.70;99.90;;;13.48;68.58;100673.31;5118786;28;19978;-80
2024/03/19 10:06:16;;;;;;;;;;;13.70;99.90;;;13.51;68.18;100675.53;5099387;28;20367;-80
2024/03/19 10:08:45;;;;;;;;;;;13.70;99.90;;;13.53;68.64;100681.50;5118710;28;19973;-80
2024/03/19 10:11:13;;;;;;;;;;;13.70;99.90;;;13.56;68.71;100681.84;5118409;28;20310;-80
2024/03/19 10:13:40;;;;;;;;;;;13.80;99.90;;;13.58;67.53;100678.97;5118108;28;20026;-80
2024/03/19 10:16:07;;;;;;;;;;;13.80;99.90;;;13.60;67.59;100682.22;5099576;28;19982;-80
2024/03/19 10:18:35;;;;;;;;;;;13.90;99.90;;;13.62;67.56;100682.84;5099784;28;19923;-80
2024/03/19 10:21:04;;;;;;;;;;;13.90;99.90;;;13.64;68.05;100681.56;5117728;28;20378;-80
2024/03/19 10:23:36;;;;;;;;;;;13.90;99.90;;;13.69;67.66;100675.50;5099621;28;19924;-80
2024/03/19 10:26:03;;;;;;;;;;;13.90;99.90;;;13.74;67.42;100678.34;5099512;28;19923;-80
2024/03/19 10:28:30;;;;;;;;;;;14.00;99.90;;;13.81;67.87;100680.91;5083124;28;20394;-80
2024/03/19 10:30:58;;;;;;;;;;;14.00;99.90;;;13.81;66.13;100680.91;5110333;28;19980;-80
2024/03/19 10:33:26;;;;;;;;;;;14.00;99.90;;;13.87;65.69;100669.31;5117787;28;20014;-80
2024/03/19 10:35:57;;;;;;;;;;;14.10;99.90;;;13.90;66.02;100677.69;5117275;28;19923;-80
2024/03/19 10:38:26;;;;;;;;;;;14.10;99.90;;;13.94;65.32;100674.56;5115985;28;19930;-80
2024/03/19 10:40:58;;;;;;;;;;;14.10;99.90;;;13.98;64.54;100670.38;5117444;28;20038;-80
2024/03/19 10:43:27;;;;;;;;;;;14.20;99.90;;;14.09;65.34;100673.09;5082384;28;19924;-80
2024/03/19 10:45:54;;;;;;;;;;;14.30;99.90;;;14.20;66.24;100666.13;5117264;28;19976;-80
2024/03/19 10:48:21;;;;;;;;;;;14.50;99.90;;;14.30;68.09;100676.28;5117355;28;19973;-80
2024/03/19 10:50:51;;;;;;;;;;;14.60;99.90;;;14.37;65.96;100669.78;5117177;28;20042;-80
2024/03/19 10:53:19;;;;;;;;;;;14.60;99.90;;;14.34;64.78;100666.72;5115962;28;20309;-80
2024/03/19 10:55:50;;;;;;;;;;;14.70;99.90;;;14.31;62.74;100675.25;5098944;28;19923;-80
2024/03/19 10:58:22;;;;;;;;;;;14.60;99.90;;;14.35;63.01;100671.88;5117505;28;20302;-80
2024/03/19 11:00:50;;;;;;;;;;;14.60;99.90;;;14.40;63.19;100677.38;5117484;28;19970;-80
2024/03/19 11:03:18;;;;;;;;;;;14.70;99.90;;;14.40;62.71;100666.63;5117576;28;20402;-80
2024/03/19 11:05:46;;;;;;;;;;;14.70;99.90;;;14.42;63.25;100661.03;5098806;28;19949;-80
2024/03/19 11:08:15;;;;;;;;;;;14.70;99.90;;;14.47;63.55;100671.88;5114899;28;19924;-80
2024/03/19 11:10:43;;;;;;;;;;;14.70;99.90;;;14.53;64.50;100667.47;5114443;28;20008;-80
2024/03/19 11:13:13;;;;;;;;;;;14.80;99.90;;;14.58;64.30;100659.53;5115593;28;19935;-80